Time;durP1;ratioP1;P1;durP2;ratioP2;P2;SDS_P1;SDS_P2;PMS_P1;PMS_P2;Temp;Humidity;BMP_temperature;BMP_pressure;BME280_temperature;BME280_humidity;BME280_pressure;Samples;Min_cycle;Max_cycle;Signal;HPM_P1;HPM_P2
2021/07/26 04:00:56;;;;;;;21.70;19.60;;;19.40;99.90;;;;;;5657953;23;21182;-71
2021/07/26 04:03:26;;;;;;;25.40;20.30;;;19.40;99.90;;;;;;4916743;29;20542;-71
2021/07/26 04:05:59;;;;;;;20.87;18.90;;;19.50;99.90;;;;;;4917395;29;20510;-71
2021/07/26 04:08:28;;;;;;;21.40;18.93;;;19.50;99.90;;;;;;4917532;29;20469;-71
2021/07/26 04:11:00;;;;;;;21.67;19.47;;;19.60;99.90;;;;;;4917452;29;20486;-71
2021/07/26 04:13:27;;;;;;;22.83;20.30;;;19.60;99.90;;;;;;4916974;29;20517;-71
2021/07/26 04:15:55;;;;;;;19.87;17.87;;;19.60;99.90;;;;;;4917206;29;20510;-71
2021/07/26 04:18:22;;;;;;;21.83;18.73;;;19.70;99.90;;;;;;4914154;29;20478;-71
2021/07/26 04:20:49;;;;;;;20.33;18.40;;;19.70;99.90;;;;;;4898038;29;20492;-71
2021/07/26 04:23:15;;;;;;;20.57;18.37;;;19.80;99.90;;;;;;4910755;29;20503;-71
2021/07/26 04:25:42;;;;;;;19.07;17.27;;;19.80;99.90;;;;;;4917989;29;20557;-70
2021/07/26 04:28:09;;;;;;;18.93;17.10;;;19.80;99.90;;;;;;4916926;29;20473;-71
2021/07/26 04:30:35;;;;;;;20.50;18.50;;;19.80;99.90;;;;;;4917193;29;20640;-70
2021/07/26 04:33:03;;;;;;;19.90;17.90;;;19.80;99.90;;;;;;4916366;29;20807;-71
2021/07/26 04:35:30;;;;;;;21.13;19.03;;;19.80;99.90;;;;;;4917233;29;20478;-72
2021/07/26 04:37:57;;;;;;;19.47;17.60;;;19.90;99.90;;;;;;4915329;29;20458;-71
2021/07/26 04:40:24;;;;;;;18.00;16.30;;;20.00;99.90;;;;;;4916921;29;20521;-71
2021/07/26 04:42:50;;;;;;;20.90;18.90;;;20.10;99.90;;;;;;4916326;29;20511;-71
2021/07/26 04:45:17;;;;;;;20.53;18.50;;;20.20;99.90;;;;;;4917011;29;20990;-71
2021/07/26 04:47:44;;;;;;;18.07;16.33;;;20.20;99.90;;;;;;4916024;29;20474;-71
2021/07/26 04:50:12;;;;;;;19.70;17.80;;;20.30;99.90;;;;;;4916880;29;20494;-71
2021/07/26 04:52:39;;;;;;;19.13;17.43;;;20.40;99.90;;;;;;4915792;29;20537;-71
2021/07/26 04:55:08;;;;;;;18.90;17.00;;;20.40;99.90;;;;;;4916637;29;20959;-71
2021/07/26 04:57:34;;;;;;;19.23;17.47;;;20.60;99.90;;;;;;4916110;29;20479;-71
2021/07/26 05:00:01;;;;;;;19.13;17.30;;;20.70;99.90;;;;;;4916908;29;20533;-71
2021/07/26 05:02:27;;;;;;;17.13;15.73;;;20.70;99.90;;;;;;4915413;29;20509;-71
2021/07/26 05:04:54;;;;;;;22.50;15.70;;;20.70;99.90;;;;;;4916149;29;20466;-71
2021/07/26 05:07:22;;;;;;;17.47;15.77;;;20.90;99.90;;;;;;4915954;29;20467;-72
2021/07/26 05:09:49;;;;;;;16.17;14.67;;;21.50;99.90;;;;;;4916343;29;20484;-72
2021/07/26 05:12:16;;;;;;;15.70;14.40;;;22.30;99.90;;;;;;4915921;29;20834;-71
2021/07/26 05:14:44;;;;;;;15.57;14.27;;;23.10;99.90;;;;;;4916640;29;20807;-73
2021/07/26 05:17:11;;;;;;;15.77;14.47;;;23.70;99.90;;;;;;4915654;29;20476;-70
2021/07/26 05:19:38;;;;;;;15.47;14.20;;;24.10;99.90;;;;;;4916274;29;20483;-72
2021/07/26 05:22:05;;;;;;;14.77;13.67;;;24.70;99.90;;;;;;4917312;29;20484;-72
2021/07/26 05:24:34;;;;;;;15.10;13.90;;;25.10;99.90;;;;;;4916075;29;20489;-72
2021/07/26 05:27:01;;;;;;;14.47;13.37;;;25.00;99.90;;;;;;4916045;29;20529;-72
2021/07/26 05:29:28;;;;;;;15.50;13.90;;;25.10;99.90;;;;;;4916063;29;20458;-72
2021/07/26 05:31:55;;;;;;;15.87;14.47;;;25.50;99.90;;;;;;4915397;29;20551;-72
2021/07/26 05:34:22;;;;;;;14.00;13.00;;;25.60;99.90;;;;;;4916193;29;20484;-72
2021/07/26 05:36:49;;;;;;;15.23;14.10;;;25.70;99.90;;;;;;4914781;29;20524;-72
2021/07/26 05:39:16;;;;;;;16.00;14.70;;;25.60;99.90;;;;;;4916169;29;20496;-72
2021/07/26 05:41:44;;;;;;;14.30;13.03;;;25.60;99.90;;;;;;4915461;29;20500;-72
2021/07/26 05:44:11;;;;;;;13.77;12.67;;;25.60;99.90;;;;;;4915641;29;20479;-72
2021/07/26 05:46:38;;;;;;;13.57;12.47;;;25.50;99.90;;;;;;4915084;29;21001;-72
2021/07/26 05:49:05;;;;;;;14.10;13.00;;;25.40;99.90;;;;;;4915624;29;20888;-72
2021/07/26 05:51:31;;;;;;;14.03;12.73;;;25.30;99.90;;;;;;4915302;29;20494;-71
2021/07/26 05:53:58;;;;;;;13.90;12.70;;;25.20;99.90;;;;;;4915339;29;20941;-72
2021/07/26 05:56:25;;;;;;;13.20;12.20;;;25.00;99.90;;;;;;4915788;29;20472;-71
2021/07/26 05:58:54;;;;;;;13.53;12.30;;;25.20;99.90;;;;;;4914377;29;20534;-72
2021/07/26 06:01:35;;;;;;;13.67;12.70;;;25.60;99.90;;;;;;4915129;29;20529;-71
2021/07/26 06:04:03;;;;;;;13.57;12.37;;;25.50;99.90;;;;;;4915853;29;20523;-72
2021/07/26 06:06:33;;;;;;;13.37;12.30;;;25.40;99.90;;;;;;4915298;29;20466;-72
2021/07/26 06:09:00;;;;;;;13.10;12.20;;;25.80;99.90;;;;;;4915821;29;20467;-72
2021/07/26 06:11:27;;;;;;;12.60;11.70;;;26.20;99.90;;;;;;4915547;29;20484;-72
2021/07/26 06:13:55;;;;;;;13.40;12.40;;;26.90;99.90;;;;;;4915267;29;20560;-72
2021/07/26 06:16:21;;;;;;;12.40;11.47;;;27.50;99.90;;;;;;4915320;29;20476;-72
2021/07/26 06:18:48;;;;;;;12.03;11.23;;;28.30;99.90;;;;;;4916170;29;20478;-72
2021/07/26 06:21:14;;;;;;;11.53;10.80;;;28.70;99.90;;;;;;4914626;29;20504;-72
2021/07/26 06:23:41;;;;;;;12.00;11.20;;;29.20;99.90;;;;;;4914501;29;20494;-72
2021/07/26 06:26:11;;;;;;;12.17;11.40;;;29.50;99.90;;;;;;4915298;29;20517;-70
2021/07/26 06:28:38;;;;;;;11.93;11.03;;;29.80;99.90;;;;;;4919721;29;20473;-73
2021/07/26 06:31:07;;;;;;;12.90;12.00;;;30.10;99.90;;;;;;4921100;29;20604;-72
2021/07/26 06:33:35;;;;;;;11.17;10.47;;;30.30;99.90;;;;;;4920883;29;20463;-72
2021/07/26 06:36:02;;;;;;;11.83;11.03;;;30.50;99.90;;;;;;4923838;29;20504;-72
2021/07/26 06:38:29;;;;;;;12.27;11.53;;;30.40;99.90;;;;;;4925044;29;20471;-71
2021/07/26 06:40:56;;;;;;;10.83;10.27;;;30.50;99.90;;;;;;4926022;29;20486;-71
2021/07/26 06:43:23;;;;;;;10.80;10.13;;;30.60;99.90;;;;;;4930164;29;20550;-72
2021/07/26 06:45:49;;;;;;;11.17;10.50;;;30.60;99.90;;;;;;4924527;29;20569;-70
2021/07/26 06:48:17;;;;;;;11.63;10.93;;;30.00;99.90;;;;;;4939632;29;20441;-70
2021/07/26 06:50:44;;;;;;;11.50;10.67;;;29.60;99.90;;;;;;4919300;29;20488;-70
2021/07/26 06:53:11;;;;;;;12.27;11.37;;;29.10;99.90;;;;;;4918583;29;20829;-69
2021/07/26 06:55:38;;;;;;;12.40;11.60;;;28.60;99.90;;;;;;4918732;29;20460;-70
2021/07/26 06:58:05;;;;;;;11.10;10.37;;;28.10;99.90;;;;;;4918852;29;20475;-72
2021/07/26 07:00:32;;;;;;;12.20;11.40;;;27.80;99.90;;;;;;4918439;29;20489;-72
2021/07/26 07:02:58;;;;;;;12.37;11.30;;;27.60;99.90;;;;;;4917352;29;20481;-70
2021/07/26 07:05:27;;;;;;;12.43;11.43;;;27.40;99.90;;;;;;4919170;29;20939;-70
2021/07/26 07:07:53;;;;;;;12.50;11.40;;;27.20;99.90;;;;;;4913815;29;20478;-70
2021/07/26 07:10:20;;;;;;;11.10;10.30;;;26.90;99.90;;;;;;4918980;29;20477;-70
2021/07/26 07:12:46;;;;;;;11.53;10.53;;;26.70;99.90;;;;;;4918565;29;20599;-70
2021/07/26 07:15:19;;;;;;;12.53;11.53;;;26.30;99.90;;;;;;4918215;29;20461;-72
2021/07/26 07:17:45;;;;;;;12.00;11.10;;;26.00;99.90;;;;;;4916611;29;20988;-71
2021/07/26 07:20:13;;;;;;;11.60;10.63;;;25.60;99.90;;;;;;4916744;29;20801;-70
2021/07/26 07:22:41;;;;;;;11.80;10.60;;;25.30;99.90;;;;;;4916627;29;20462;-70
2021/07/26 07:25:09;;;;;;;11.37;10.37;;;25.00;99.90;;;;;;4916963;29;20558;-70
2021/07/26 07:27:35;;;;;;;12.57;11.53;;;24.70;99.90;;;;;;4917723;29;20525;-70
2021/07/26 07:30:02;;;;;;;12.70;11.60;;;24.50;99.90;;;;;;4917400;29;20952;-69
2021/07/26 07:32:29;;;;;;;12.57;11.57;;;24.10;99.90;;;;;;4916735;29;20549;-70
2021/07/26 07:34:55;;;;;;;12.00;11.00;;;23.70;99.90;;;;;;4902622;29;20459;-71
2021/07/26 07:37:23;;;;;;;12.23;10.93;;;23.40;99.90;;;;;;4909758;29;20549;-70
2021/07/26 07:39:51;;;;;;;11.27;10.27;;;23.20;99.90;;;;;;4916637;29;20467;-67
2021/07/26 07:42:17;;;;;;;11.67;10.57;;;22.90;99.90;;;;;;4897816;29;20491;-70
2021/07/26 07:44:44;;;;;;;12.27;11.10;;;22.60;99.90;;;;;;4898942;29;20518;-70
2021/07/26 07:47:13;;;;;;;12.83;11.50;;;22.40;99.90;;;;;;4898321;29;20468;-70
2021/07/26 07:49:42;;;;;;;13.80;12.60;;;22.20;99.90;;;;;;4898601;29;21026;-70
2021/07/26 07:52:11;;;;;;;12.67;10.40;;;21.90;99.90;;;;;;4897262;29;20499;-70
2021/07/26 07:54:37;;;;;;;11.43;10.43;;;21.60;99.90;;;;;;4917550;29;20494;-71
2021/07/26 07:57:05;;;;;;;13.50;12.10;;;21.40;99.90;;;;;;4915615;29;20518;-71
2021/07/26 07:59:32;;;;;;;11.60;10.60;;;21.10;99.90;;;;;;4916780;29;20564;-71
2021/07/26 08:01:59;;;;;;;14.70;12.20;;;21.00;99.90;;;;;;4916537;29;20645;-71
2021/07/26 08:04:26;;;;;;;12.50;11.30;;;20.90;99.90;;;;;;4917178;29;20494;-71
2021/07/26 08:06:53;;;;;;;12.70;11.40;;;20.70;99.90;;;;;;4916416;29;20467;-72
2021/07/26 08:09:20;;;;;;;13.77;10.80;;;20.70;99.90;;;;;;4916262;29;20883;-71
2021/07/26 08:11:46;;;;;;;11.80;10.67;;;20.50;99.90;;;;;;4916896;29;20979;-71
2021/07/26 08:14:14;;;;;;;11.27;10.17;;;20.40;99.90;;;;;;4914441;29;20499;-69
2021/07/26 08:16:41;;;;;;;11.93;10.07;;;20.40;99.90;;;;;;4916089;29;20529;-71
2021/07/26 08:19:08;;;;;;;10.63;9.10;;;20.30;99.90;;;;;;4917068;29;20469;-72
2021/07/26 08:21:34;;;;;;;10.50;9.43;;;20.20;99.90;;;;;;4914362;29;20490;-69
2021/07/26 08:24:02;;;;;;;10.00;9.13;;;20.10;99.90;;;;;;4915839;29;20518;-69
2021/07/26 08:26:29;;;;;;;13.00;9.70;;;20.00;99.90;;;;;;4916776;29;20462;-70
2021/07/26 08:28:55;;;;;;;10.00;9.00;;;20.00;99.90;;;;;;4913487;29;20874;-69
2021/07/26 08:31:23;;;;;;;10.77;9.63;;;19.90;99.90;;;;;;4913123;29;20974;-69
2021/07/26 08:33:50;;;;;;;13.60;10.50;;;19.90;99.90;;;;;;4910017;29;20522;-71
2021/07/26 08:36:17;;;;;;;11.90;8.13;;;19.70;99.90;;;;;;4915506;29;20538;-73
2021/07/26 08:38:43;;;;;;;8.87;7.97;;;19.50;99.90;;;;;;4916106;29;21110;-73
2021/07/26 08:41:10;;;;;;;7.77;7.00;;;19.20;99.90;;;;;;4916170;29;20486;-72
2021/07/26 08:43:37;;;;;;;9.03;8.13;;;19.20;99.90;;;;;;4914881;29;20494;-70
2021/07/26 08:46:04;;;;;;;10.60;9.40;;;19.10;99.90;;;;;;4910385;29;20537;-72
2021/07/26 08:48:35;;;;;;;8.43;7.63;;;19.10;99.90;;;;;;4914854;29;20931;-70
2021/07/26 08:51:03;;;;;;;7.30;6.60;;;19.10;99.90;;;;;;4910868;29;20502;-72
2021/07/26 08:53:33;;;;;;;10.23;6.93;;;19.10;99.90;;;;;;4915375;29;20470;-72
2021/07/26 08:56:00;;;;;;;8.73;7.83;;;19.10;99.90;;;;;;4915959;29;20514;-71
2021/07/26 08:58:26;;;;;;;7.73;7.03;;;19.10;99.90;;;;;;4916231;29;20474;-69
2021/07/26 09:00:54;;;;;;;9.40;8.40;;;19.00;99.90;;;;;;4915070;29;21000;-70
2021/07/26 09:03:21;;;;;;;9.00;8.17;;;18.90;99.90;;;;;;4915380;29;20470;-70
2021/07/26 09:05:49;;;;;;;8.40;7.60;;;18.80;99.90;;;;;;4915611;29;20546;-70
2021/07/26 09:08:16;;;;;;;7.87;7.17;;;18.70;99.90;;;;;;4913580;29;20553;-70
2021/07/26 09:10:44;;;;;;;7.70;7.00;;;18.70;99.90;;;;;;4915291;29;20574;-69
2021/07/26 09:13:12;;;;;;;6.77;6.27;;;18.60;99.90;;;;;;4915993;29;20828;-71
2021/07/26 09:15:41;;;;;;;8.87;7.47;;;18.60;99.90;;;;;;4909220;29;20522;-70
2021/07/26 09:18:09;;;;;;;8.80;7.60;;;18.60;99.90;;;;;;4906643;29;20470;-69
2021/07/26 09:20:39;;;;;;;8.70;7.87;;;18.70;99.90;;;;;;4913968;29;20490;-71
2021/07/26 09:23:14;;;;;;;7.37;6.67;;;18.70;99.90;;;;;;4913046;29;20928;-70
2021/07/26 09:25:42;;;;;;;13.43;7.57;;;18.70;99.90;;;;;;4915432;29;21080;-74
2021/07/26 09:28:12;;;;;;;7.33;6.63;;;18.60;99.90;;;;;;4915286;29;20471;-72
2021/07/26 09:30:47;;;;;;;7.30;6.27;;;18.50;99.90;;;;;;4915493;29;20502;-72
2021/07/26 09:33:28;;;;;;;10.90;8.10;;;18.50;99.90;;;;;;4914159;29;20466;-71
2021/07/26 09:36:05;;;;;;;6.33;5.83;;;18.40;99.90;;;;;;4914925;29;20542;-72
2021/07/26 09:38:33;;;;;;;5.40;4.93;;;18.40;99.90;;;;;;4915538;29;20851;-72
2021/07/26 09:41:02;;;;;;;5.97;5.50;;;18.40;99.90;;;;;;4915018;29;20539;-71
2021/07/26 09:43:29;;;;;;;8.90;6.37;;;18.30;99.90;;;;;;4914675;29;21054;-71
2021/07/26 09:45:56;;;;;;;6.47;6.00;;;18.30;99.90;;;;;;4914513;29;21031;-71
2021/07/26 09:48:26;;;;;;;5.73;5.23;;;18.40;99.90;;;;;;4913166;29;20573;-71
2021/07/26 09:50:53;;;;;;;5.50;5.20;;;18.60;99.90;;;;;;4910172;29;20490;-71
2021/07/26 09:53:22;;;;;;;4.77;4.47;;;18.70;99.90;;;;;;4914890;29;20474;-71
2021/07/26 09:55:51;;;;;;;5.97;5.57;;;19.00;99.90;;;;;;4915500;29;20462;-71
2021/07/26 09:58:20;;;;;;;5.23;4.77;;;19.20;99.90;;;;;;4914241;29;20847;-71
2021/07/26 10:00:47;;;;;;;6.87;4.67;;;19.30;99.90;;;;;;4914837;29;20506;-71
2021/07/26 10:03:16;;;;;;;6.00;5.50;;;19.50;99.90;;;;;;4911086;29;20467;-72
2021/07/26 10:05:44;;;;;;;5.23;4.93;;;19.70;99.90;;;;;;4908113;29;20499;-72
2021/07/26 10:08:10;;;;;;;5.30;4.90;;;19.90;99.90;;;;;;4906560;29;20852;-72
2021/07/26 10:10:39;;;;;;;4.73;4.33;;;20.20;99.90;;;;;;4914978;29;20479;-71
2021/07/26 10:13:08;;;;;;;3.27;3.17;;;20.40;99.90;;;;;;4906320;29;20475;-72
2021/07/26 10:15:37;;;;;;;3.47;3.37;;;20.60;99.90;;;;;;4903608;29;20470;-72
2021/07/26 10:18:04;;;;;;;3.97;3.77;;;20.60;99.90;;;;;;4909030;29;20474;-73
2021/07/26 10:20:34;;;;;;;3.80;3.70;;;20.70;99.90;;;;;;4908372;29;20490;-72
2021/07/26 10:23:06;;;;;;;3.90;3.80;;;20.80;99.90;;;;;;4909101;29;20479;-72
2021/07/26 10:25:37;;;;;;;3.63;3.50;;;20.90;99.90;;;;;;4916173;29;20478;-71
2021/07/26 10:28:11;;;;;;;4.30;3.93;;;21.00;99.90;;;;;;4918376;29;20821;-72
2021/07/26 10:30:39;;;;;;;3.90;3.80;;;21.20;99.90;;;;;;4915228;29;20572;-72
2021/07/26 10:33:07;;;;;;;3.87;3.67;;;21.30;99.90;;;;;;4918451;29;20753;-72
2021/07/26 10:35:48;;;;;;;4.00;3.70;;;21.50;99.90;;;;;;4915565;29;20497;-71
2021/07/26 10:38:15;;;;;;;4.37;4.07;;;21.70;99.90;;;;;;4919029;29;20473;-72
2021/07/26 10:40:42;;;;;;;3.60;3.40;;;22.00;99.90;;;;;;4917896;29;20589;-74
2021/07/26 10:43:15;;;;;;;3.67;3.47;;;22.10;99.90;;;;;;4918555;29;20946;-72
2021/07/26 10:45:56;;;;;;;4.27;3.63;;;22.20;99.90;;;;;;4913524;29;20486;-74
2021/07/26 10:48:32;;;;;;;3.90;3.70;;;22.40;99.90;;;;;;4915662;29;20478;-72
2021/07/26 10:51:00;;;;;;;4.73;3.70;;;22.50;99.90;;;;;;4917610;29;20505;-72
2021/07/26 10:53:58;;;;;;;4.73;4.50;;;22.50;99.90;;;;;;4916622;29;20569;-73
2021/07/26 10:56:25;;;;;;;3.97;3.73;;;22.70;99.90;;;;;;4917721;29;20583;-73
2021/07/26 10:59:04;;;;;;;3.37;3.17;;;22.80;99.90;;;;;;4919131;29;20522;-73
2021/07/26 11:01:55;;;;;;;3.40;3.30;;;22.90;99.90;;;;;;4915226;29;20517;-73
2021/07/26 11:04:47;;;;;;;3.57;3.47;;;22.90;99.90;;;;;;4902990;29;20498;-73
2021/07/26 11:07:29;;;;;;;4.57;3.60;;;23.00;99.90;;;;;;4915471;29;20483;-72
2021/07/26 11:09:56;;;;;;;4.00;3.80;;;23.10;99.90;;;;;;4918219;29;20577;-74
2021/07/26 11:12:51;;;;;;;4.13;3.93;;;23.10;99.90;;;;;;4918418;29;20497;-71
2021/07/26 11:15:20;;;;;;;3.50;3.40;;;23.30;99.90;;;;;;4916933;29;20454;-72
2021/07/26 11:18:28;;;;;;;4.43;4.23;;;23.30;99.90;;;;;;4917491;29;20470;-70
2021/07/26 11:21:35;;;;;;;3.43;3.33;;;23.40;99.90;;;;;;4915375;29;21101;-70
2021/07/26 11:24:02;;;;;;;3.87;3.67;;;23.60;99.90;;;;;;4914193;29;20566;-70
2021/07/26 11:26:30;;;;;;;3.23;3.13;;;23.70;99.90;;;;;;4909278;29;21023;-70
2021/07/26 11:28:59;;;;;;;3.70;3.50;;;23.70;99.90;;;;;;4912355;29;20472;-71
2021/07/26 11:31:34;;;;;;;4.10;3.93;;;23.70;99.90;;;;;;4916494;29;20537;-70
2021/07/26 11:34:12;;;;;;;3.40;3.30;;;23.80;99.90;;;;;;4913150;29;20471;-71
2021/07/26 11:37:02;;;;;;;3.50;3.40;;;23.90;99.90;;;;;;4906978;29;20481;-71
2021/07/26 11:39:43;;;;;;;3.10;3.10;;;23.90;99.90;;;;;;4917711;29;20891;-71
2021/07/26 11:42:10;;;;;;;3.77;3.53;;;24.00;99.90;;;;;;4914316;29;20478;-71
2021/07/26 11:44:37;;;;;;;3.30;3.20;;;24.00;99.90;;;;;;4912195;29;20498;-71
2021/07/26 11:47:05;;;;;;;3.40;3.30;;;24.10;99.90;;;;;;4911433;29;20470;-70
2021/07/26 11:49:32;;;;;;;2.77;2.57;;;24.20;99.90;;;;;;4916736;29;20514;-70
2021/07/26 11:52:09;;;;;;;2.70;2.70;;;24.30;99.90;;;;;;4907724;29;20521;-69
2021/07/26 11:54:36;;;;;;;3.13;3.03;;;24.50;99.90;;;;;;4905777;29;20987;-69
2021/07/26 11:57:06;;;;;;;3.23;3.13;;;24.60;99.90;;;;;;4911280;29;20490;-70
2021/07/26 11:59:34;;;;;;;2.50;2.47;;;24.70;99.90;;;;;;4914852;29;20463;-70
2021/07/26 12:02:11;;;;;;;4.20;3.80;;;24.80;99.90;;;;;;4916419;29;20566;-70
2021/07/26 12:04:38;;;;;;;3.00;2.90;;;25.00;99.90;;;;;;4917414;29;20466;-71
2021/07/26 12:07:06;;;;;;;3.10;3.00;;;25.00;99.90;;;;;;4917295;29;20511;-71
2021/07/26 12:09:33;;;;;;;2.87;2.80;;;25.00;99.90;;;;;;4916723;29;20521;-71
2021/07/26 12:12:13;;;;;;;3.30;3.13;;;25.00;99.90;;;;;;4915957;29;20554;-70
2021/07/26 12:14:40;;;;;;;2.93;2.83;;;24.90;99.90;;;;;;4915803;29;20474;-72
2021/07/26 12:17:10;;;;;;;2.83;2.83;;;25.00;99.90;;;;;;4915528;29;20470;-71
2021/07/26 12:19:39;;;;;;;3.60;3.50;;;25.20;99.90;;;;;;4916566;29;20541;-71
2021/07/26 12:22:14;;;;;;;3.00;2.90;;;25.50;99.90;;;;;;4915818;29;20518;-72
2021/07/26 12:24:45;;;;;;;3.27;3.17;;;25.60;99.90;;;;;;4915214;29;20558;-72
2021/07/26 12:27:12;;;;;;;3.13;3.07;;;25.60;99.90;;;;;;4916877;29;20494;-72
2021/07/26 12:29:54;;;;;;;2.63;2.53;;;25.70;99.90;;;;;;4910372;29;20805;-72
2021/07/26 12:32:22;;;;;;;3.33;3.13;;;25.80;99.90;;;;;;4897061;29;20554;-71
2021/07/26 12:35:11;;;;;;;3.77;3.47;;;25.90;99.90;;;;;;4897410;29;20527;-71
2021/07/26 12:37:38;;;;;;;3.50;3.40;;;25.80;99.90;;;;;;4907667;29;20932;-72
2021/07/26 12:40:15;;;;;;;3.30;3.20;;;25.90;99.90;;;;;;4916831;29;20494;-73
2021/07/26 12:42:42;;;;;;;3.40;3.30;;;26.00;99.90;;;;;;4915997;29;20466;-72
2021/07/26 12:45:20;;;;;;;3.17;3.07;;;25.90;99.90;;;;;;4916410;29;20513;-72
2021/07/26 12:47:48;;;;;;;2.93;2.83;;;26.10;99.90;;;;;;4896687;29;20526;-72
2021/07/26 12:50:14;;;;;;;3.60;3.47;;;26.20;99.90;;;;;;4897995;29;20506;-72
2021/07/26 12:52:41;;;;;;;3.10;2.97;;;26.10;99.90;;;;;;4913517;29;20474;-72
2021/07/26 12:55:09;;;;;;;3.50;3.33;;;26.10;99.90;;;;;;4916986;29;20949;-72
2021/07/26 12:57:36;;;;;;;4.17;3.97;;;26.20;99.90;;;;;;4917099;29;20947;-72
2021/07/26 13:00:03;;;;;;;3.70;3.60;;;26.20;99.90;;;;;;4916516;29;20474;-72
2021/07/26 13:02:29;;;;;;;4.00;3.60;;;26.20;99.90;;;;;;4915043;29;20522;-70
2021/07/26 13:04:57;;;;;;;3.90;3.80;;;26.20;99.90;;;;;;4916186;29;20489;-72
2021/07/26 13:07:24;;;;;;;4.13;3.80;;;26.40;99.90;;;;;;4915628;29;21015;-72
2021/07/26 13:09:51;;;;;;;4.43;4.13;;;26.40;99.90;;;;;;4916109;29;20474;-72
2021/07/26 13:12:17;;;;;;;4.80;4.60;;;26.50;99.90;;;;;;4915409;29;20490;-71
2021/07/26 13:14:44;;;;;;;4.60;4.40;;;26.50;99.90;;;;;;4915911;29;20498;-72
2021/07/26 13:17:10;;;;;;;4.53;4.30;;;26.60;99.90;;;;;;4904221;29;20763;-71
2021/07/26 13:19:37;;;;;;;4.93;4.53;;;26.60;99.90;;;;;;4913781;29;20534;-72
2021/07/26 13:22:05;;;;;;;5.97;5.57;;;26.60;99.90;;;;;;4915472;29;20546;-71
2021/07/26 13:24:32;;;;;;;4.27;4.17;;;26.60;99.90;;;;;;4915869;29;20498;-71
2021/07/26 13:27:00;;;;;;;24.53;5.63;;;26.60;99.90;;;;;;4916000;29;20499;-71
2021/07/26 13:29:26;;;;;;;4.40;4.20;;;26.70;99.90;;;;;;4915984;29;20526;-70
2021/07/26 13:31:53;;;;;;;4.27;4.07;;;26.80;99.90;;;;;;4914720;29;20849;-72
2021/07/26 13:34:20;;;;;;;3.57;3.37;;;26.90;99.90;;;;;;4915012;29;20470;-72
2021/07/26 13:36:46;;;;;;;4.20;4.10;;;26.90;99.90;;;;;;4915112;29;20521;-72
2021/07/26 13:39:14;;;;;;;3.77;3.67;;;26.80;99.90;;;;;;4915605;29;20501;-71
2021/07/26 13:41:41;;;;;;;4.30;4.10;;;26.70;99.90;;;;;;4915460;29;20571;-72
2021/07/26 13:44:08;;;;;;;3.97;3.87;;;26.70;99.90;;;;;;4915096;29;20467;-72
2021/07/26 13:46:34;;;;;;;5.80;5.20;;;26.80;99.90;;;;;;4915102;29;20525;-71
2021/07/26 13:49:02;;;;;;;4.10;3.90;;;26.80;99.90;;;;;;4914838;29;20466;-72
2021/07/26 13:51:29;;;;;;;5.13;4.73;;;26.80;99.90;;;;;;4915382;29;20577;-70
2021/07/26 13:53:56;;;;;;;6.03;5.60;;;26.80;99.90;;;;;;4914650;29;20467;-72
2021/07/26 13:56:23;;;;;;;6.10;5.53;;;26.90;99.90;;;;;;4914818;29;20494;-71
2021/07/26 13:58:50;;;;;;;5.07;4.77;;;27.00;99.90;;;;;;4907787;29;21361;-71
2021/07/26 14:01:17;;;;;;;5.00;4.80;;;27.10;99.90;;;;;;4914637;29;20570;-71
2021/07/26 14:03:43;;;;;;;5.20;4.90;;;27.20;99.90;;;;;;4912717;29;20499;-69
2021/07/26 14:06:10;;;;;;;5.13;4.93;;;27.20;99.90;;;;;;4914748;29;20551;-70
2021/07/26 14:08:37;;;;;;;5.63;5.00;;;27.20;99.90;;;;;;4915284;29;20480;-71
2021/07/26 14:11:04;;;;;;;4.93;4.63;;;27.40;99.90;;;;;;4915342;29;20554;-70
2021/07/26 14:13:31;;;;;;;6.10;5.57;;;27.60;99.90;;;;;;4915136;29;20539;-70
2021/07/26 14:15:59;;;;;;;5.50;5.13;;;27.60;99.90;;;;;;4914540;29;20515;-70
2021/07/26 14:18:25;;;;;;;5.07;4.77;;;27.60;99.90;;;;;;4915700;29;20543;-70
2021/07/26 14:20:53;;;;;;;5.47;5.13;;;27.70;99.90;;;;;;4914720;29;20556;-71
2021/07/26 14:23:20;;;;;;;9.27;8.77;;;27.80;99.90;;;;;;4914018;29;21077;-70
2021/07/26 14:25:47;;;;;;;4.87;4.67;;;27.90;99.90;;;;;;4916107;29;20489;-72
2021/07/26 14:28:13;;;;;;;5.10;4.70;;;28.10;99.90;;;;;;4915089;29;20473;-69
2021/07/26 14:30:44;;;;;;;4.93;4.63;;;28.00;99.90;;;;;;4914675;29;20493;-71
2021/07/26 14:33:10;;;;;;;4.90;4.70;;;28.10;99.90;;;;;;4914437;29;20528;-70
2021/07/26 14:35:37;;;;;;;4.87;4.53;;;28.00;99.90;;;;;;4914554;29;20517;-70
2021/07/26 14:38:07;;;;;;;5.07;4.87;;;28.00;99.90;;;;;;4914459;29;20476;-71
2021/07/26 14:40:34;;;;;;;4.60;4.40;;;28.00;99.90;;;;;;4915065;29;20555;-71
2021/07/26 14:43:01;;;;;;;4.90;4.70;;;27.90;99.90;;;;;;4914420;29;20511;-71
2021/07/26 14:45:28;;;;;;;5.90;4.07;;;27.70;99.90;;;;;;4915342;29;20535;-71
2021/07/26 14:47:57;;;;;;;4.30;4.20;;;27.50;99.90;;;;;;4899879;29;20528;-71
2021/07/26 14:50:24;;;;;;;4.63;4.33;;;27.40;99.90;;;;;;4906217;29;20464;-71
2021/07/26 14:52:50;;;;;;;4.73;4.53;;;27.30;99.90;;;;;;4913827;29;20462;-70
2021/07/26 14:55:17;;;;;;;4.60;4.50;;;27.10;99.90;;;;;;4915029;29;20498;-70
2021/07/26 14:57:44;;;;;;;4.53;4.23;;;27.00;99.90;;;;;;4915248;29;20602;-71
2021/07/26 15:00:12;;;;;;;4.70;4.50;;;26.90;99.90;;;;;;4914935;29;20471;-70
2021/07/26 15:02:38;;;;;;;4.77;4.57;;;26.90;99.90;;;;;;4913550;29;20474;-70
2021/07/26 15:05:08;;;;;;;5.23;4.73;;;26.90;99.90;;;;;;4914759;29;20467;-71
2021/07/26 15:07:34;;;;;;;4.60;4.43;;;26.80;99.90;;;;;;4915366;29;20823;-71
2021/07/26 15:10:01;;;;;;;4.60;4.40;;;26.80;99.90;;;;;;4917826;29;20455;-70
2021/07/26 15:12:28;;;;;;;5.60;5.17;;;26.70;99.90;;;;;;4917419;29;20490;-71
2021/07/26 15:14:55;;;;;;;4.33;4.13;;;26.70;99.90;;;;;;4917919;29;20466;-70
2021/07/26 15:17:22;;;;;;;4.73;4.43;;;26.80;99.90;;;;;;4917431;29;21026;-70
2021/07/26 15:19:48;;;;;;;5.50;5.20;;;26.80;99.90;;;;;;4913868;29;20553;-70
2021/07/26 15:22:17;;;;;;;5.17;4.70;;;26.80;99.90;;;;;;4914070;29;20483;-70
2021/07/26 15:24:47;;;;;;;4.80;4.60;;;26.70;99.90;;;;;;4918018;29;20491;-75
2021/07/26 15:27:14;;;;;;;3.93;3.83;;;26.70;99.90;;;;;;4917350;29;20772;-70
2021/07/26 15:29:41;;;;;;;4.80;4.60;;;26.80;99.90;;;;;;4917229;29;20470;-71
2021/07/26 15:32:08;;;;;;;4.37;4.17;;;26.80;99.90;;;;;;4916485;29;20830;-71
2021/07/26 15:34:36;;;;;;;4.53;4.40;;;27.00;99.90;;;;;;4917785;29;20554;-71
2021/07/26 15:37:03;;;;;;;4.90;4.70;;;27.00;99.90;;;;;;4917203;29;20619;-70
2021/07/26 15:39:31;;;;;;;4.83;4.63;;;27.00;99.90;;;;;;4917584;29;20631;-72
2021/07/26 15:41:58;;;;;;;5.07;4.83;;;27.10;99.90;;;;;;4916510;29;20496;-72
2021/07/26 15:44:24;;;;;;;5.37;4.97;;;27.10;99.90;;;;;;4916555;29;20486;-71
2021/07/26 15:46:51;;;;;;;5.33;4.77;;;27.10;99.90;;;;;;4917093;29;20547;-71
2021/07/26 15:49:17;;;;;;;4.83;4.53;;;27.10;99.90;;;;;;4915146;29;23445;-70
2021/07/26 15:51:44;;;;;;;4.83;4.53;;;27.10;99.90;;;;;;4916803;29;20536;-71
2021/07/26 15:54:11;;;;;;;4.97;4.67;;;27.10;99.90;;;;;;4916218;29;20480;-71
2021/07/26 15:56:41;;;;;;;5.13;4.83;;;27.10;99.90;;;;;;4917089;29;20499;-71
2021/07/26 15:59:08;;;;;;;5.47;5.13;;;27.10;99.90;;;;;;4915624;29;20530;-70
2021/07/26 16:01:35;;;;;;;4.73;4.53;;;27.00;99.90;;;;;;4916599;29;20500;-71
2021/07/26 16:04:03;;;;;;;5.37;5.07;;;27.00;99.90;;;;;;4916323;29;20518;-70
2021/07/26 16:06:30;;;;;;;5.10;4.80;;;27.00;99.90;;;;;;4916494;29;20515;-70
2021/07/26 16:08:57;;;;;;;4.90;4.50;;;26.90;99.90;;;;;;4902737;29;20473;-70
2021/07/26 16:11:24;;;;;;;5.33;5.13;;;27.00;99.90;;;;;;4913955;29;20488;-70
2021/07/26 16:13:52;;;;;;;6.00;5.50;;;27.00;99.90;;;;;;4916379;29;20539;-70
2021/07/26 16:16:19;;;;;;;6.23;5.93;;;27.20;99.90;;;;;;4916371;29;20467;-70
2021/07/26 16:18:45;;;;;;;5.13;4.87;;;27.20;99.90;;;;;;4918239;29;20471;-71
2021/07/26 16:21:12;;;;;;;6.37;5.77;;;27.30;99.90;;;;;;4916221;29;20491;-71
2021/07/26 16:23:38;;;;;;;5.60;5.30;;;27.20;99.90;;;;;;4916976;29;20463;-70
2021/07/26 16:26:06;;;;;;;5.60;5.30;;;27.20;99.90;;;;;;4913905;29;20492;-71
2021/07/26 16:28:33;;;;;;;5.87;5.47;;;27.20;99.90;;;;;;4912063;29;20579;-70
2021/07/26 16:31:03;;;;;;;5.77;5.47;;;27.20;99.90;;;;;;4915481;29;20498;-72
2021/07/26 16:33:30;;;;;;;5.63;5.30;;;27.20;99.90;;;;;;4912462;29;20476;-70
2021/07/26 16:35:56;;;;;;;4.90;4.70;;;27.30;99.90;;;;;;4916148;29;20581;-71
2021/07/26 16:38:23;;;;;;;4.60;4.40;;;27.40;99.90;;;;;;4916378;29;20996;-71
2021/07/26 16:40:49;;;;;;;4.77;4.60;;;27.50;99.90;;;;;;4908099;29;20547;-71
2021/07/26 16:43:17;;;;;;;4.50;4.30;;;27.60;99.90;;;;;;4916132;29;20526;-70
2021/07/26 16:45:44;;;;;;;4.97;4.77;;;27.60;99.90;;;;;;4915739;29;20476;-70
2021/07/26 16:48:12;;;;;;;5.13;4.83;;;27.70;99.90;;;;;;4906970;29;20555;-70